Time;durP1;ratioP1;P1;durP2;ratioP2;P2;SDS_P1;SDS_P2;PMS_P1;PMS_P2;Temp;Humidity;BMP_temperature;BMP_pressure;BME280_temperature;BME280_humidity;BME280_pressure;Samples;Min_cycle;Max_cycle;Signal;HPM_P1;HPM_P2
2022/05/12 00:01:49;;;;;;;0.00;0.00;;;11.60;99.90;;;;;;4869104;29;20803;-66
2022/05/12 00:04:15;;;;;;;0.00;0.00;;;11.60;99.90;;;;;;4869715;29;20124;-66
2022/05/12 00:06:40;;;;;;;0.00;0.00;;;12.20;99.90;;;;;;4869294;29;20111;-66
2022/05/12 00:09:06;;;;;;;0.00;0.00;;;11.60;99.90;;;;;;4851962;29;20048;-66
2022/05/12 00:11:32;;;;;;;0.00;0.00;;;11.50;99.90;;;;;;4867812;29;20060;-66
2022/05/12 00:13:57;;;;;;;0.00;0.00;;;12.20;99.90;;;;;;4869358;29;20132;-66
2022/05/12 00:16:23;;;;;;;0.00;0.00;;;11.70;99.90;;;;;;4868926;29;20108;-66
2022/05/12 00:18:49;;;;;;;0.00;0.00;;;11.50;99.90;;;;;;4869153;29;20412;-66
2022/05/12 00:21:14;;;;;;;0.00;0.00;;;11.50;99.90;;;;;;4869232;29;20491;-66
2022/05/12 00:23:40;;;;;;;0.00;0.00;;;11.50;99.90;;;;;;4869026;29;20047;-66
2022/05/12 00:26:06;;;;;;;0.00;0.00;;;11.50;99.90;;;;;;4866628;29;20080;-66
2022/05/12 00:28:31;;;;;;;0.00;0.00;;;11.80;99.90;;;;;;4868774;29;20635;-66
2022/05/12 00:30:58;;;;;;;0.00;0.00;;;11.50;99.90;;;;;;4868970;29;20052;-66
2022/05/12 00:33:27;;;;;;;0.00;0.00;;;11.40;99.90;;;;;;4852109;29;20414;-66
2022/05/12 00:35:54;;;;;;;0.00;0.00;;;11.40;99.90;;;;;;4869103;29;20092;-66
2022/05/12 00:38:19;;;;;;;0.00;0.00;;;11.50;99.90;;;;;;4852064;29;20152;-66
2022/05/12 00:40:47;;;;;;;0.00;0.00;;;11.40;99.90;;;;;;4868250;29;20132;-66
2022/05/12 00:43:31;;;;;;;0.00;0.00;;;11.70;99.90;;;;;;4868578;29;20114;-66
2022/05/12 00:45:56;;;;;;;0.00;0.00;;;12.20;99.90;;;;;;4874849;29;20080;-66
2022/05/12 00:48:22;;;;;;;0.00;0.00;;;11.30;99.90;;;;;;4872310;29;20054;-66
2022/05/12 00:50:48;;;;;;;0.00;0.00;;;11.30;99.90;;;;;;4870005;29;20052;-66
2022/05/12 00:53:15;;;;;;;0.00;0.00;;;11.40;99.90;;;;;;4872770;29;20753;-66
2022/05/12 00:55:43;;;;;;;0.00;0.00;;;11.20;99.90;;;;;;4871930;29;20059;-66
2022/05/12 00:58:13;;;;;;;0.00;0.00;;;11.10;99.90;;;;;;4872176;29;20041;-66
2022/05/12 01:00:39;;;;;;;0.00;0.00;;;11.10;99.90;;;;;;4872031;29;20056;-66
2022/05/12 01:03:16;;;;;;;0.00;0.00;;;11.20;99.90;;;;;;4870933;29;20062;-66
2022/05/12 01:05:42;;;;;;;0.00;0.00;;;11.70;99.90;;;;;;4872361;29;20139;-66
2022/05/12 01:08:14;;;;;;;0.00;0.00;;;11.00;99.90;;;;;;4855304;29;20057;-66
2022/05/12 01:10:41;;;;;;;0.00;0.00;;;11.00;99.90;;;;;;4870464;29;20108;-66
2022/05/12 01:13:07;;;;;;;0.00;0.00;;;10.90;99.90;;;;;;4872022;29;20104;-66
2022/05/12 01:15:33;;;;;;;0.00;0.00;;;10.80;99.90;;;;;;4871782;29;20112;-66
2022/05/12 01:18:15;;;;;;;0.00;0.00;;;11.00;99.90;;;;;;4872112;29;20629;-66
2022/05/12 01:20:41;;;;;;;0.00;0.00;;;10.80;99.90;;;;;;4872189;29;20060;-66
2022/05/12 01:23:30;;;;;;;0.00;0.00;;;10.80;99.90;;;;;;4872037;29;20044;-66
2022/05/12 01:26:08;;;;;;;0.00;0.00;;;10.70;99.90;;;;;;4854298;29;20507;-66
2022/05/12 01:28:35;;;;;;;0.00;0.00;;;10.70;99.90;;;;;;4854746;29;20053;-66
2022/05/12 01:31:01;;;;;;;0.00;0.00;;;10.70;99.90;;;;;;4871573;29;20782;-66
2022/05/12 01:33:28;;;;;;;0.00;0.00;;;10.60;99.90;;;;;;4839523;29;20374;-66
2022/05/12 01:35:53;;;;;;;0.00;0.00;;;10.60;99.90;;;;;;4871800;29;20081;-66
2022/05/12 01:38:19;;;;;;;0.00;0.00;;;10.70;99.90;;;;;;4854669;29;20061;-66
2022/05/12 01:40:45;;;;;;;0.00;0.00;;;11.00;99.90;;;;;;4871321;29;20064;-66
2022/05/12 01:43:13;;;;;;;0.00;0.00;;;10.50;99.90;;;;;;4871831;29;20187;-66
2022/05/12 01:45:39;;;;;;;0.00;0.00;;;10.60;99.90;;;;;;4874793;29;20052;-66
2022/05/12 01:48:08;;;;;;;0.00;0.00;;;10.50;99.90;;;;;;4854131;29;20122;-66
2022/05/12 01:50:35;;;;;;;0.00;0.00;;;10.40;99.90;;;;;;4871160;29;20176;-66
2022/05/12 01:53:03;;;;;;;0.00;0.00;;;10.50;99.90;;;;;;4871671;29;20085;-66
2022/05/12 01:55:29;;;;;;;0.00;0.00;;;10.40;99.90;;;;;;4869952;29;20180;-66
2022/05/12 01:57:57;;;;;;;0.00;0.00;;;10.90;99.90;;;;;;4871352;29;20045;-66
2022/05/12 02:00:27;;;;;;;0.00;0.00;;;10.60;99.90;;;;;;4871129;29;20144;-66
2022/05/12 02:02:54;;;;;;;0.00;0.00;;;10.20;99.90;;;;;;4870231;29;20056;-66
2022/05/12 02:05:20;;;;;;;0.10;0.10;;;10.50;99.90;;;;;;4870824;29;20052;-66
2022/05/12 02:07:48;;;;;;;0.00;0.00;;;10.10;99.90;;;;;;4871177;29;20052;-66
2022/05/12 02:10:18;;;;;;;0.00;0.00;;;10.10;99.90;;;;;;4869932;29;20061;-66
2022/05/12 02:12:44;;;;;;;0.00;0.00;;;10.00;99.90;;;;;;4871184;29;20408;-66
2022/05/12 02:15:11;;;;;;;0.00;0.00;;;10.00;99.90;;;;;;4871022;29;20057;-66
2022/05/12 02:17:37;;;;;;;0.00;0.00;;;10.00;99.90;;;;;;4870309;29;20696;-66
2022/05/12 02:20:03;;;;;;;0.00;0.00;;;9.90;99.90;;;;;;4871059;29;20124;-66
2022/05/12 02:22:29;;;;;;;0.00;0.00;;;9.90;99.90;;;;;;4853997;29;20442;-66
2022/05/12 02:24:55;;;;;;;0.00;0.00;;;9.90;99.90;;;;;;4870318;29;20057;-66
2022/05/12 02:27:20;;;;;;;0.00;0.00;;;9.80;99.90;;;;;;4870170;29;20128;-66
2022/05/12 02:29:46;;;;;;;0.00;0.00;;;9.80;99.90;;;;;;4870746;29;20120;-67
2022/05/12 02:32:12;;;;;;;0.00;0.00;;;10.40;99.90;;;;;;4871220;29;20067;-66
2022/05/12 02:34:38;;;;;;;0.00;0.00;;;9.90;99.90;;;;;;4853591;29;20101;-66
2022/05/12 02:37:05;;;;;;;0.03;0.03;;;9.90;99.90;;;;;;4870710;29;20990;-66
2022/05/12 02:39:36;;;;;;;0.00;0.00;;;9.70;99.90;;;;;;4869616;29;20045;-66
2022/05/12 02:42:07;;;;;;;0.00;0.00;;;9.60;99.90;;;;;;4870370;29;20112;-66
2022/05/12 02:44:33;;;;;;;0.00;0.00;;;9.60;99.90;;;;;;4870513;29;20548;-66
2022/05/12 02:46:59;;;;;;;2.47;0.52;;;9.60;99.90;;;;;;4863710;29;20049;-66
2022/05/12 02:49:25;;;;;;;0.00;0.00;;;9.60;99.90;;;;;;4853401;29;20052;-66
2022/05/12 02:51:51;;;;;;;0.00;0.00;;;9.50;99.90;;;;;;4870112;29;20049;-66
2022/05/12 02:54:18;;;;;;;0.00;0.00;;;9.50;99.90;;;;;;4870010;29;20045;-67
2022/05/12 02:56:45;;;;;;;0.22;0.22;;;10.20;99.90;;;;;;4853739;29;20052;-66
2022/05/12 02:59:11;;;;;;;0.00;0.00;;;9.40;99.90;;;;;;4869898;29;20044;-66
2022/05/12 03:01:37;;;;;;;0.22;0.22;;;9.40;99.90;;;;;;4870091;29;20202;-66
2022/05/12 03:04:03;;;;;;;0.00;0.00;;;9.40;99.90;;;;;;4868924;29;20453;-66
2022/05/12 03:06:29;;;;;;;0.10;0.10;;;9.40;99.90;;;;;;4869713;29;20049;-65
2022/05/12 03:08:55;;;;;;;0.00;0.00;;;9.30;99.90;;;;;;4869775;29;20088;-65
2022/05/12 03:11:21;;;;;;;0.00;0.00;;;9.30;99.90;;;;;;4868580;29;20677;-65
2022/05/12 03:13:49;;;;;;;0.80;0.10;;;9.30;99.90;;;;;;4869344;29;20132;-66
2022/05/12 03:16:16;;;;;;;0.00;0.00;;;9.30;99.90;;;;;;4869636;29;20457;-66
2022/05/12 03:18:43;;;;;;;0.00;0.00;;;9.50;99.90;;;;;;4870060;29;20049;-66
2022/05/12 03:21:09;;;;;;;0.00;0.00;;;9.30;99.90;;;;;;4869920;29;20871;-66
2022/05/12 03:23:35;;;;;;;0.00;0.00;;;9.20;99.90;;;;;;4869040;29;20045;-66
2022/05/12 03:26:01;;;;;;;0.00;0.00;;;10.10;99.90;;;;;;4852459;29;20068;-66
2022/05/12 03:28:27;;;;;;;0.00;0.00;;;9.20;99.90;;;;;;4869429;29;20068;-66
2022/05/12 03:30:53;;;;;;;0.00;0.00;;;9.20;99.90;;;;;;4869737;29;20390;-66
2022/05/12 03:33:19;;;;;;;0.00;0.00;;;9.20;99.90;;;;;;4868966;29;20040;-66
2022/05/12 03:35:45;;;;;;;0.00;0.00;;;9.40;99.90;;;;;;4869879;29;20037;-66
2022/05/12 03:38:11;;;;;;;0.00;0.00;;;9.20;99.90;;;;;;4852804;29;20160;-66
2022/05/12 03:40:37;;;;;;;0.00;0.00;;;9.10;99.90;;;;;;4867688;29;20053;-66
2022/05/12 03:43:03;;;;;;;0.00;0.00;;;9.10;99.90;;;;;;4869431;29;20389;-66
2022/05/12 03:45:29;;;;;;;0.10;0.10;;;9.20;99.90;;;;;;4871835;29;20076;-66
2022/05/12 03:47:56;;;;;;;0.00;0.00;;;9.20;99.90;;;;;;4860508;29;20060;-66
2022/05/12 03:50:25;;;;;;;0.00;0.00;;;9.30;99.90;;;;;;4869192;29;20045;-66
2022/05/12 03:52:53;;;;;;;0.00;0.00;;;9.20;99.90;;;;;;4869535;29;20100;-66
2022/05/12 03:55:22;;;;;;;0.00;0.00;;;9.20;99.90;;;;;;4868237;29;20152;-66
2022/05/12 03:57:51;;;;;;;0.00;0.00;;;9.20;99.90;;;;;;4869195;29;20045;-66
2022/05/12 04:00:24;;;;;;;0.00;0.00;;;9.20;99.90;;;;;;4852256;29;20053;-67
2022/05/12 04:02:50;;;;;;;0.00;0.00;;;9.20;99.90;;;;;;4869453;29;20049;-66
2022/05/12 04:05:18;;;;;;;0.00;0.00;;;9.30;99.90;;;;;;4869251;29;20432;-67
2022/05/12 04:07:44;;;;;;;0.00;0.00;;;9.20;99.90;;;;;;4868495;29;20172;-66
2022/05/12 04:10:14;;;;;;;0.00;0.00;;;9.10;99.90;;;;;;4851664;29;20033;-66
2022/05/12 04:12:40;;;;;;;0.00;0.00;;;9.30;99.90;;;;;;4868420;29;20060;-66
2022/05/12 04:15:08;;;;;;;0.00;0.00;;;9.70;99.90;;;;;;4869219;29;20088;-65
2022/05/12 04:17:33;;;;;;;0.00;0.00;;;9.20;99.90;;;;;;4852039;29;20049;-66
2022/05/12 04:20:07;;;;;;;0.00;0.00;;;9.20;99.90;;;;;;4868630;29;20453;-66
2022/05/12 04:22:33;;;;;;;0.00;0.00;;;9.20;99.90;;;;;;4867644;29;20048;-66
2022/05/12 04:24:59;;;;;;;0.00;0.00;;;9.50;99.90;;;;;;4868588;29;20052;-66
2022/05/12 04:27:25;;;;;;;0.10;0.10;;;9.30;99.90;;;;;;4872342;29;20045;-66
2022/05/12 04:29:51;;;;;;;0.00;0.00;;;9.30;99.90;;;;;;4855973;29;20060;-66
2022/05/12 04:32:16;;;;;;;0.00;0.00;;;9.60;99.90;;;;;;4872697;29;20057;-67
2022/05/12 04:37:31;;;;;;;0.05;0.00;;;9.40;99.90;;;;;;4855442;29;20064;-66
2022/05/12 04:40:07;;;;;;;0.10;0.10;;;9.10;99.90;;;;;;4872183;29;20109;-66
2022/05/12 04:42:33;;;;;;;0.00;0.00;;;9.50;99.90;;;;;;4855675;29;20056;-66
2022/05/12 04:44:58;;;;;;;0.00;0.00;;;9.60;99.90;;;;;;4875036;29;20045;-66
2022/05/12 04:47:24;;;;;;;0.00;0.00;;;9.90;99.90;;;;;;4870826;29;20071;-66
2022/05/12 04:49:50;;;;;;;0.00;0.00;;;10.20;99.90;;;;;;4872364;29;20091;-66
2022/05/12 04:52:16;;;;;;;0.00;0.00;;;10.40;99.90;;;;;;4872230;29;20067;-67
2022/05/12 04:54:42;;;;;;;0.00;0.00;;;10.60;99.90;;;;;;4872094;29;20045;-66
2022/05/12 04:57:07;;;;;;;0.00;0.00;;;10.50;99.90;;;;;;4871865;29;20084;-66
2022/05/12 04:59:33;;;;;;;0.03;0.03;;;10.80;99.90;;;;;;4872361;29;20124;-66
2022/05/12 05:02:00;;;;;;;0.00;0.00;;;11.10;99.90;;;;;;4855647;29;20080;-66
2022/05/12 05:04:26;;;;;;;0.00;0.00;;;11.10;99.90;;;;;;4872216;29;20586;-66
2022/05/12 05:06:52;;;;;;;0.00;0.00;;;11.10;99.90;;;;;;4871842;29;20049;-67
2022/05/12 05:09:18;;;;;;;0.10;0.10;;;11.10;99.90;;;;;;4871531;29;20056;-66
2022/05/12 05:11:43;;;;;;;0.88;0.10;;;11.30;99.90;;;;;;4870777;29;20132;-66
2022/05/12 05:14:09;;;;;;;0.00;0.00;;;11.50;99.90;;;;;;4854896;29;20560;-66
2022/05/12 05:16:35;;;;;;;0.00;0.00;;;11.80;99.90;;;;;;4872127;29;20041;-66
2022/05/12 05:19:01;;;;;;;0.00;0.00;;;11.70;99.90;;;;;;4872313;29;20053;-66
2022/05/12 05:21:27;;;;;;;0.00;0.00;;;11.80;99.90;;;;;;4871959;29;20056;-66
2022/05/12 05:23:52;;;;;;;0.03;0.03;;;11.80;99.90;;;;;;4871245;29;20049;-66
2022/05/12 05:26:18;;;;;;;0.00;0.00;;;12.20;99.90;;;;;;4871320;29;20048;-66
2022/05/12 05:28:44;;;;;;;0.00;0.00;;;12.00;99.90;;;;;;4872580;29;20041;-66
2022/05/12 05:31:09;;;;;;;0.00;0.00;;;12.30;99.90;;;;;;4871324;29;20144;-66
2022/05/12 05:33:35;;;;;;;0.22;0.15;;;12.60;99.90;;;;;;4871707;29;20758;-66
2022/05/12 05:36:01;;;;;;;0.00;0.00;;;12.70;99.90;;;;;;4855154;29;20045;-65
2022/05/12 05:38:27;;;;;;;2.40;0.20;;;12.60;99.90;;;;;;4870502;29;20528;-66
2022/05/12 05:40:53;;;;;;;0.00;0.00;;;12.70;99.90;;;;;;4870518;29;20068;-66
2022/05/12 05:43:19;;;;;;;0.00;0.00;;;12.80;99.90;;;;;;4871635;29;20545;-65
2022/05/12 05:45:45;;;;;;;0.00;0.00;;;13.20;99.90;;;;;;4876457;29;20052;-65
2022/05/12 05:48:11;;;;;;;0.00;0.00;;;13.30;99.90;;;;;;4877034;29;20052;-65
2022/05/12 05:53:26;;;;;;;0.00;0.00;;;13.30;99.90;;;;;;4870687;29;20041;-65
2022/05/12 05:55:57;;;;;;;0.00;0.00;;;13.30;99.90;;;;;;4870624;29;20178;-65
2022/05/12 05:58:24;;;;;;;0.00;0.00;;;13.40;99.90;;;;;;4871128;29;20064;-65
2022/05/12 06:00:50;;;;;;;0.00;0.00;;;13.80;99.90;;;;;;4871201;29;20059;-65
2022/05/12 06:03:16;;;;;;;0.00;0.00;;;13.70;99.90;;;;;;4870833;29;20053;-66
2022/05/12 06:05:43;;;;;;;0.00;0.00;;;13.60;99.90;;;;;;4871633;29;20045;-65
2022/05/12 06:08:10;;;;;;;0.00;0.00;;;13.90;99.90;;;;;;4871091;29;20060;-65
2022/05/12 06:10:36;;;;;;;0.00;0.00;;;14.00;99.90;;;;;;4869243;29;20061;-65
2022/05/12 06:13:03;;;;;;;0.00;0.00;;;14.10;99.90;;;;;;4854537;29;20443;-65
2022/05/12 06:15:29;;;;;;;0.00;0.00;;;14.30;99.90;;;;;;4854494;29;20109;-65
2022/05/12 06:17:55;;;;;;;0.00;0.00;;;14.20;99.90;;;;;;4870591;29;20053;-65
2022/05/12 06:20:22;;;;;;;0.00;0.00;;;14.10;99.90;;;;;;4870493;29;20033;-65
2022/05/12 06:22:48;;;;;;;0.00;0.00;;;13.90;99.90;;;;;;4870517;29;20085;-67
2022/05/12 06:25:16;;;;;;;0.10;0.10;;;14.40;99.90;;;;;;4870562;29;20049;-67
2022/05/12 06:27:44;;;;;;;0.00;0.00;;;14.20;99.90;;;;;;4870989;29;20471;-66
2022/05/12 06:30:11;;;;;;;0.00;0.00;;;14.30;99.90;;;;;;4853936;29;20125;-64
2022/05/12 06:32:38;;;;;;;0.00;0.00;;;14.50;99.90;;;;;;4870562;29;20477;-65
2022/05/12 06:35:05;;;;;;;0.00;0.00;;;14.60;99.90;;;;;;4870352;29;20080;-64
2022/05/12 06:37:32;;;;;;;0.00;0.00;;;15.00;99.90;;;;;;4868845;29;20049;-64
2022/05/12 06:39:57;;;;;;;0.10;0.10;;;15.30;99.90;;;;;;4870128;29;20121;-64
2022/05/12 06:42:23;;;;;;;0.30;0.25;;;14.90;99.90;;;;;;4869803;29;20546;-64
2022/05/12 06:44:50;;;;;;;0.00;0.00;;;14.90;99.90;;;;;;4870650;29;20047;-64
2022/05/12 06:47:16;;;;;;;0.03;0.03;;;14.90;99.90;;;;;;4862214;29;20060;-66
2022/05/12 06:49:42;;;;;;;0.47;0.47;;;14.90;99.90;;;;;;4870271;29;20045;-64
2022/05/12 06:52:09;;;;;;;0.00;0.00;;;14.80;99.90;;;;;;4870165;29;20052;-65
2022/05/12 06:54:36;;;;;;;0.22;0.20;;;14.70;99.90;;;;;;4852972;29;20128;-64
2022/05/12 06:57:03;;;;;;;0.00;0.00;;;14.90;99.90;;;;;;4870067;29;20049;-64
2022/05/12 06:59:29;;;;;;;0.03;0.03;;;15.20;99.90;;;;;;4869681;29;20049;-64
2022/05/12 07:01:55;;;;;;;0.00;0.00;;;15.40;99.90;;;;;;4870206;29;20055;-64
2022/05/12 07:04:21;;;;;;;0.00;0.00;;;15.40;99.90;;;;;;4853273;29;20049;-64
2022/05/12 07:06:47;;;;;;;0.00;0.00;;;15.20;99.90;;;;;;4869616;29;20411;-64
2022/05/12 07:09:13;;;;;;;0.00;0.00;;;14.80;99.90;;;;;;4852900;29;20049;-64
2022/05/12 07:11:39;;;;;;;0.00;0.00;;;14.90;99.90;;;;;;4869940;29;20061;-65
2022/05/12 07:14:05;;;;;;;0.10;0.10;;;15.20;99.90;;;;;;4869951;29;20742;-64
2022/05/12 07:16:31;;;;;;;0.00;0.00;;;15.30;99.90;;;;;;4868103;29;20052;-64
2022/05/12 07:18:56;;;;;;;0.00;0.00;;;15.20;99.90;;;;;;4869717;29;20045;-64
2022/05/12 07:26:53;;;;;;;0.00;0.00;;;15.70;99.90;;;;;;4869582;29;20053;-64
2022/05/12 07:29:24;;;;;;;0.57;0.20;;;15.50;99.90;;;;;;4868685;29;20139;-65
2022/05/12 07:31:50;;;;;;;0.00;0.00;;;15.30;99.90;;;;;;4870091;29;20068;-64
2022/05/12 07:34:17;;;;;;;0.00;0.00;;;15.30;99.90;;;;;;4869482;29;20057;-65
2022/05/12 07:36:50;;;;;;;0.10;0.10;;;15.20;99.90;;;;;;4869615;29;20053;-64
2022/05/12 07:39:17;;;;;;;0.05;0.00;;;15.40;99.90;;;;;;4869190;29;20047;-65
2022/05/12 07:41:43;;;;;;;0.00;0.00;;;15.50;99.90;;;;;;4869630;29;20523;-64
2022/05/12 07:44:10;;;;;;;0.00;0.00;;;15.80;99.90;;;;;;4869055;29;20056;-64
2022/05/12 07:46:37;;;;;;;0.00;0.00;;;15.90;99.90;;;;;;4879785;29;20056;-64
2022/05/12 07:49:03;;;;;;;0.00;0.00;;;15.80;99.90;;;;;;4869188;29;20045;-64
2022/05/12 07:51:29;;;;;;;0.00;0.00;;;15.90;99.90;;;;;;4868588;29;20511;-64
2022/05/12 07:53:54;;;;;;;0.00;0.00;;;16.40;99.90;;;;;;4868579;29;20064;-64
2022/05/12 07:56:25;;;;;;;0.20;0.10;;;16.30;99.90;;;;;;4868924;29;20087;-64
2022/05/12 07:58:52;;;;;;;0.00;0.00;;;16.40;99.90;;;;;;4868974;29;20120;-64
2022/05/12 08:01:19;;;;;;;0.00;0.00;;;16.40;99.90;;;;;;4868559;29;20076;-66
2022/05/12 08:03:45;;;;;;;0.00;0.00;;;16.50;99.90;;;;;;4852741;29;20081;-64
2022/05/12 08:06:15;;;;;;;0.00;0.00;;;16.90;99.90;;;;;;4869539;29;20049;-66
2022/05/12 08:08:45;;;;;;;0.00;0.00;;;16.70;99.90;;;;;;4868268;29;20567;-65
2022/05/12 08:11:12;;;;;;;0.00;0.00;;;16.90;99.90;;;;;;4852624;29;20152;-64
2022/05/12 08:13:39;;;;;;;0.00;0.00;;;16.40;99.90;;;;;;4869095;29;20568;-63
2022/05/12 08:16:06;;;;;;;0.00;0.00;;;16.70;99.90;;;;;;4868884;29;20612;-64
2022/05/12 08:18:32;;;;;;;0.00;0.00;;;16.60;99.90;;;;;;4868836;29;20497;-64
2022/05/12 08:20:58;;;;;;;0.00;0.00;;;16.50;99.90;;;;;;4869048;29;20056;-64
2022/05/12 08:23:24;;;;;;;0.00;0.00;;;16.60;99.90;;;;;;4867571;29;20049;-66
2022/05/12 08:25:51;;;;;;;0.00;0.00;;;16.80;99.90;;;;;;4869263;29;20104;-65
2022/05/12 08:28:20;;;;;;;0.13;0.10;;;16.80;99.90;;;;;;4868725;29;20053;-66
2022/05/12 08:30:47;;;;;;;0.10;0.10;;;16.80;99.90;;;;;;4868522;29;20056;-66
2022/05/12 08:33:14;;;;;;;0.00;0.00;;;17.00;99.90;;;;;;4852614;29;20041;-64
2022/05/12 08:35:42;;;;;;;0.00;0.00;;;17.00;99.90;;;;;;4852161;29;20060;-64
2022/05/12 08:38:08;;;;;;;0.00;0.00;;;17.00;99.90;;;;;;4868760;29;20049;-64
2022/05/12 08:41:04;;;;;;;0.00;0.00;;;17.10;99.90;;;;;;4867596;29;20060;-65
2022/05/12 08:43:53;;;;;;;0.00;0.00;;;17.10;99.90;;;;;;4851550;29;20056;-64
2022/05/12 08:46:23;;;;;;;0.00;0.00;;;17.10;99.90;;;;;;4877316;29;20116;-65
2022/05/12 08:48:53;;;;;;;0.00;0.00;;;17.10;99.90;;;;;;4852760;29;20057;-64
2022/05/12 08:51:21;;;;;;;0.00;0.00;;;17.00;99.90;;;;;;4868722;29;20057;-65
2022/05/12 08:53:54;;;;;;;0.00;0.00;;;17.00;99.90;;;;;;4868174;29;20037;-65
2022/05/12 08:56:21;;;;;;;0.00;0.00;;;17.00;99.90;;;;;;4868251;29;20055;-64
2022/05/12 08:58:49;;;;;;;0.47;0.28;;;17.10;99.90;;;;;;4868530;29;20041;-63
2022/05/12 09:01:36;;;;;;;0.00;0.00;;;17.00;99.90;;;;;;4852265;29;20170;-64
2022/05/12 09:04:43;;;;;;;0.00;0.00;;;16.90;99.90;;;;;;4851958;29;20101;-64
2022/05/12 09:07:29;;;;;;;0.00;0.00;;;17.10;99.90;;;;;;4868029;29;20072;-64
2022/05/12 09:10:33;;;;;;;0.00;0.00;;;17.00;99.90;;;;;;4867679;29;20496;-64
2022/05/12 09:13:15;;;;;;;0.00;0.00;;;17.00;99.90;;;;;;4854796;29;20079;-63
2022/05/12 09:16:09;;;;;;;0.00;0.00;;;16.90;99.90;;;;;;4871954;29;20041;-64
2022/05/12 09:18:36;;;;;;;0.00;0.00;;;16.90;99.90;;;;;;4849797;29;20667;-63
2022/05/12 09:21:09;;;;;;;0.00;0.00;;;17.10;99.90;;;;;;4877852;29;20059;-63
2022/05/12 09:23:35;;;;;;;0.00;0.00;;;17.60;99.90;;;;;;4907673;29;20052;-65
2022/05/12 09:26:39;;;;;;;0.00;0.00;;;18.10;99.90;;;;;;4873983;29;20112;-65
2022/05/12 09:29:27;;;;;;;0.00;0.00;;;18.00;99.90;;;;;;4854558;29;20055;-64
2022/05/12 09:32:02;;;;;;;0.10;0.10;;;17.90;99.90;;;;;;4871395;29;20064;-64
2022/05/12 09:34:29;;;;;;;;;;;17.40;99.90;;;;;;4871353;29;20056;-64
2022/05/12 09:36:55;;;;;;;0.00;0.00;;;17.20;99.90;;;;;;4871317;29;19924;-64
2022/05/12 09:39:32;;;;;;;0.00;0.00;;;17.50;99.90;;;;;;4889284;29;20399;-64
2022/05/12 09:41:58;;;;;;;0.00;0.00;;;17.50;99.90;;;;;;4909103;29;20048;-64
2022/05/12 09:44:27;;;;;;;0.00;0.00;;;17.50;99.90;;;;;;4890938;29;20059;-64
2022/05/12 09:46:55;;;;;;;0.57;0.10;;;17.70;99.90;;;;;;4872131;29;20071;-65
2022/05/12 09:49:23;;;;;;;0.00;0.00;;;17.80;99.90;;;;;;4892036;29;20515;-64
2022/05/12 09:51:48;;;;;;;0.00;0.00;;;17.50;99.90;;;;;;4872837;29;20056;-62
2022/05/12 09:54:23;;;;;;;0.10;0.10;;;17.80;99.90;;;;;;4889443;29;20427;-62
2022/05/12 09:57:14;;;;;;;0.00;0.00;;;17.50;99.90;;;;;;4889886;29;20048;-62
2022/05/12 09:59:43;;;;;;;0.00;0.00;;;17.20;99.90;;;;;;4890061;29;20052;-62
2022/05/12 10:08:21;;;;;;;0.00;0.00;;;17.40;99.90;;;;;;4889735;29;20463;-60
2022/05/12 10:10:50;;;;;;;0.00;0.00;;;17.90;99.90;;;;;;4889736;29;20416;-61
2022/05/12 10:13:40;;;;;;;0.00;0.00;;;18.40;99.90;;;;;;4889952;29;20630;-61
2022/05/12 10:16:08;;;;;;;0.00;0.00;;;18.00;99.90;;;;;;4889519;29;20459;-62
2022/05/12 10:18:52;;;;;;;0.00;0.00;;;17.80;99.90;;;;;;4889539;29;20041;-61
2022/05/12 10:21:24;;;;;;;0.00;0.00;;;17.40;99.90;;;;;;4872914;29;20056;-62
2022/05/12 10:24:01;;;;;;;0.15;0.10;;;17.60;99.90;;;;;;4887981;29;20045;-62
2022/05/12 10:26:46;;;;;;;0.00;0.00;;;17.40;99.90;;;;;;4889415;29;20104;-61
2022/05/12 10:29:34;;;;;;;0.00;0.00;;;17.20;99.90;;;;;;4873025;29;20048;-61
2022/05/12 10:32:30;;;;;;;0.00;0.00;;;17.20;99.90;;;;;;4889588;29;20496;-62
2022/05/12 10:35:19;;;;;;;0.00;0.00;;;17.40;99.90;;;;;;4889506;29;20040;-62
2022/05/12 10:38:06;;;;;;;0.10;0.10;;;18.00;99.90;;;;;;4872997;29;20504;-66
2022/05/12 10:41:04;;;;;;;0.13;0.10;;;18.10;99.90;;;;;;4888245;29;20423;-65
2022/05/12 10:43:46;;;;;;;0.00;0.00;;;18.50;99.90;;;;;;4872364;29;20060;-64
2022/05/12 10:46:20;;;;;;;0.00;0.00;;;19.20;99.90;;;;;;4883054;29;20077;-66
2022/05/12 10:48:52;;;;;;;0.85;0.63;;;19.60;99.90;;;;;;4871686;29;20041;-67
2022/05/12 10:51:39;;;;;;;0.00;0.00;;;19.40;99.90;;;;;;4869476;29;20151;-67
2022/05/12 10:54:26;;;;;;;0.00;0.00;;;19.60;99.90;;;;;;4853050;29;20416;-67
2022/05/12 10:57:29;;;;;;;0.00;0.00;;;18.80;99.90;;;;;;4853750;29;20067;-67
2022/05/12 11:00:42;;;;;;;0.00;0.00;;;18.60;99.90;;;;;;4869759;29;20123;-68
2022/05/12 11:03:29;;;;;;;0.00;0.00;;;19.00;99.90;;;;;;4869819;29;20045;-67
2022/05/12 11:05:58;;;;;;;0.00;0.00;;;19.00;99.90;;;;;;4870072;29;20041;-67
2022/05/12 11:08:32;;;;;;;0.00;0.00;;;19.40;99.90;;;;;;4868827;29;20049;-67
2022/05/12 11:11:00;;;;;;;0.15;0.00;;;19.90;99.90;;;;;;4869786;29;20486;-67
2022/05/12 11:13:26;;;;;;;0.00;0.00;;;19.90;99.90;;;;;;4870006;29;20072;-67
2022/05/12 11:16:03;;;;;;;0.00;0.00;;;20.00;99.90;;;;;;4852814;29;20567;-67
2022/05/12 11:18:44;;;;;;;0.00;0.00;;;19.80;99.90;;;;;;4869818;29;20053;-67
2022/05/12 11:21:15;;;;;;;0.00;0.00;;;19.90;99.90;;;;;;4869820;29;20049;-67
2022/05/12 11:23:43;;;;;;;0.10;0.00;;;19.20;99.90;;;;;;4869302;29;20048;-67
2022/05/12 11:26:09;;;;;;;0.10;0.10;;;19.20;99.90;;;;;;4869639;29;20100;-67
2022/05/12 11:31:48;;;;;;;0.00;0.00;;;19.70;99.90;;;;;;4869312;29;20394;-67
2022/05/12 11:34:19;;;;;;;0.00;0.00;;;19.80;99.90;;;;;;4869826;29;20080;-67
2022/05/12 11:36:49;;;;;;;0.00;0.00;;;19.70;99.90;;;;;;4869081;29;20097;-67
2022/05/12 11:39:43;;;;;;;0.00;0.00;;;19.60;99.90;;;;;;4868691;29;20056;-67
2022/05/12 11:42:24;;;;;;;0.00;0.00;;;19.70;99.90;;;;;;4869855;29;20049;-67
2022/05/12 11:45:05;;;;;;;0.00;0.00;;;18.80;99.90;;;;;;4871071;29;20408;-67
2022/05/12 11:47:49;;;;;;;0.00;0.00;;;18.50;99.90;;;;;;4877242;29;20113;-67
2022/05/12 11:50:46;;;;;;;0.00;0.00;;;18.40;99.90;;;;;;4853022;29;20131;-66
2022/05/12 11:53:25;;;;;;;0.00;0.00;;;18.40;99.90;;;;;;4852206;29;20088;-67
2022/05/12 11:56:03;;;;;;;0.00;0.00;;;18.80;99.90;;;;;;4869452;29;20069;-67
2022/05/12 11:59:08;;;;;;;0.05;0.00;;;19.20;99.90;;;;;;4869066;29;20181;-68
2022/05/12 12:01:37;;;;;;;0.00;0.00;;;19.00;99.90;;;;;;4851650;29;20049;-67
2022/05/12 12:04:03;;;;;;;0.00;0.00;;;18.50;99.90;;;;;;4869370;29;20049;-67
2022/05/12 12:06:37;;;;;;;0.00;0.00;;;18.30;99.90;;;;;;4869034;29;20128;-67
2022/05/12 12:09:25;;;;;;;2.53;0.10;;;18.20;99.90;;;;;;4868624;29;20120;-67
2022/05/12 12:11:51;;;;;;;0.00;0.00;;;18.30;99.90;;;;;;4868566;29;20053;-67
2022/05/12 12:14:57;;;;;;;0.00;0.00;;;18.30;99.90;;;;;;4868471;29;20140;-67
2022/05/12 12:17:25;;;;;;;0.00;0.00;;;18.00;99.90;;;;;;4828774;29;20121;-67
2022/05/12 12:19:55;;;;;;;0.00;0.00;;;18.50;99.90;;;;;;4829399;29;20612;-67
2022/05/12 12:22:27;;;;;;;0.10;0.10;;;18.90;99.90;;;;;;4849913;29;20057;-67
2022/05/12 12:24:58;;;;;;;0.75;0.20;;;18.80;99.90;;;;;;4851082;29;20060;-67
2022/05/12 12:27:50;;;;;;;0.00;0.00;;;19.00;99.90;;;;;;4868741;29;20132;-67
2022/05/12 12:30:30;;;;;;;0.00;0.00;;;18.50;99.90;;;;;;4868612;29;20053;-67
2022/05/12 12:33:25;;;;;;;0.00;0.00;;;18.60;99.90;;;;;;4869123;29;20053;-68
2022/05/12 12:35:56;;;;;;;0.00;0.00;;;18.50;99.90;;;;;;4854665;29;20064;-68
2022/05/12 12:38:53;;;;;;;0.00;0.00;;;18.60;99.90;;;;;;4868210;29;20053;-67
2022/05/12 12:41:43;;;;;;;0.00;0.00;;;18.40;99.90;;;;;;4834291;29;20210;-67
2022/05/12 12:44:17;;;;;;;0.00;0.00;;;18.60;99.90;;;;;;4852194;29;20049;-67
2022/05/12 12:46:58;;;;;;;0.00;0.00;;;18.70;99.90;;;;;;4880566;29;20543;-67
2022/05/12 12:49:45;;;;;;;0.10;0.10;;;19.10;99.90;;;;;;4872047;29;20574;-67
2022/05/12 12:52:13;;;;;;;0.00;0.00;;;19.30;99.90;;;;;;4872830;29;20131;-67
2022/05/12 12:57:38;;;;;;;0.00;0.00;;;18.60;99.90;;;;;;4871843;29;20053;-67
2022/05/12 13:00:09;;;;;;;0.00;0.00;;;18.60;99.90;;;;;;4872528;29;20557;-67
2022/05/12 13:02:40;;;;;;;0.00;0.00;;;18.70;99.90;;;;;;4871820;29;20045;-69
2022/05/12 13:05:08;;;;;;;0.00;0.00;;;18.70;99.90;;;;;;4855400;29;20053;-67
2022/05/12 13:07:36;;;;;;;0.30;0.30;;;18.90;99.90;;;;;;4872114;29;20053;-67
2022/05/12 13:10:07;;;;;;;0.00;0.00;;;19.40;99.90;;;;;;4871919;29;20052;-67
2022/05/12 13:12:32;;;;;;;0.10;0.10;;;19.40;99.90;;;;;;4868771;29;20104;-67
2022/05/12 13:15:00;;;;;;;0.00;0.00;;;19.70;99.90;;;;;;4878144;29;20657;-68
2022/05/12 13:17:38;;;;;;;0.00;0.00;;;19.60;99.90;;;;;;4877303;29;20098;-67
2022/05/12 13:20:17;;;;;;;0.00;0.00;;;19.60;99.90;;;;;;4876683;29;20128;-67
2022/05/12 13:22:57;;;;;;;0.00;0.00;;;19.70;99.90;;;;;;4877257;29;20048;-67
2022/05/12 13:25:27;;;;;;;0.00;0.00;;;19.50;99.90;;;;;;4860292;29;20127;-68
2022/05/12 13:27:54;;;;;;;0.00;0.00;;;19.30;99.90;;;;;;4877395;29;20092;-68
2022/05/12 13:30:26;;;;;;;1.77;0.10;;;19.30;99.90;;;;;;4868297;29;20128;-67